createdAt,value
2023-04-09T00:01:45.144Z,11.30
2023-04-09T00:04:12.610Z,11.30
2023-04-09T00:06:40.061Z,11.30
2023-04-09T00:09:07.440Z,11.30
2023-04-09T00:11:34.985Z,11.30
2023-04-09T00:14:02.367Z,11.30
2023-04-09T00:16:29.823Z,11.30
2023-04-09T00:18:57.438Z,11.30
2023-04-09T00:21:24.812Z,11.20
2023-04-09T00:23:52.155Z,11.20
2023-04-09T00:26:19.576Z,11.20
2023-04-09T00:28:47.082Z,11.20
2023-04-09T00:31:14.489Z,11.20
2023-04-09T00:33:42.099Z,11.20
2023-04-09T00:36:09.522Z,11.30
2023-04-09T00:38:36.903Z,11.30
2023-04-09T00:41:04.555Z,11.30
2023-04-09T00:43:32.015Z,11.30
2023-04-09T00:46:00.841Z,11.20
2023-04-09T00:48:28.744Z,11.20
2023-04-09T00:50:56.331Z,11.20
2023-04-09T00:53:23.909Z,11.10
2023-04-09T00:55:52.346Z,11.10
2023-04-09T00:58:19.766Z,11.10
2023-04-09T01:00:47.177Z,11.00
2023-04-09T01:03:14.919Z,11.00
2023-04-09T01:06:05.859Z,10.90
2023-04-09T01:08:43.766Z,11.00
2023-04-09T01:11:36.520Z,10.80
2023-04-09T01:14:12.483Z,10.70
2023-04-09T01:16:47.799Z,10.60
2023-04-09T01:19:44.013Z,10.60
2023-04-09T01:22:31.303Z,10.50
2023-04-09T01:25:23.270Z,10.40
2023-04-09T01:28:14.722Z,10.40
2023-04-09T01:30:47.395Z,10.40
2023-04-09T01:33:19.657Z,10.30
2023-04-09T01:35:49.474Z,10.30
2023-04-09T01:38:19.680Z,10.20
2023-04-09T01:40:48.737Z,10.10
2023-04-09T01:43:17.219Z,10.10
2023-04-09T01:45:45.659Z,10.10
2023-04-09T01:48:14.910Z,10.10
2023-04-09T01:50:43.187Z,10.00
2023-04-09T01:53:11.084Z,10.10
2023-04-09T01:55:38.593Z,10.10
2023-04-09T01:58:05.998Z,10.10
2023-04-09T02:00:39.873Z,10.10
2023-04-09T02:03:18.159Z,10.10
2023-04-09T02:05:55.660Z,10.10
2023-04-09T02:08:25.279Z,10.20
2023-04-09T02:10:57.993Z,10.20
2023-04-09T02:13:27.239Z,10.20
2023-04-09T02:15:58.560Z,10.30
2023-04-09T02:18:28.665Z,10.30
2023-04-09T02:20:57.588Z,10.30
2023-04-09T02:23:25.980Z,10.30
2023-04-09T02:25:53.831Z,10.40
2023-04-09T02:28:22.084Z,10.50
2023-04-09T02:30:52.257Z,10.50
2023-04-09T02:33:19.664Z,10.50
2023-04-09T02:35:47.080Z,10.50
2023-04-09T02:38:16.028Z,10.50
2023-04-09T02:40:43.637Z,10.50
2023-04-09T02:43:11.307Z,10.50
2023-04-09T02:45:38.903Z,10.50
2023-04-09T02:48:06.439Z,10.50
2023-04-09T02:50:35.964Z,10.50
2023-04-09T02:53:03.755Z,10.50
2023-04-09T02:55:31.314Z,10.50
2023-04-09T02:57:58.727Z,10.50
2023-04-09T03:00:26.108Z,10.50
2023-04-09T03:02:54.985Z,10.70
2023-04-09T03:05:22.436Z,10.80
2023-04-09T03:07:49.863Z,10.70
2023-04-09T03:10:17.302Z,10.70
2023-04-09T03:12:44.812Z,10.70
2023-04-09T03:15:12.256Z,10.70
2023-04-09T03:17:39.861Z,10.70
2023-04-09T03:20:08.286Z,10.80
2023-04-09T03:22:39.943Z,10.80
2023-04-09T03:25:22.985Z,10.80
2023-04-09T03:27:54.245Z,10.80
2023-04-09T03:30:32.205Z,10.80
2023-04-09T03:33:02.170Z,10.80
2023-04-09T03:35:32.444Z,10.80
2023-04-09T03:38:01.228Z,10.70
2023-04-09T03:40:28.664Z,10.70
2023-04-09T03:42:56.024Z,10.60
2023-04-09T03:45:23.503Z,10.60
2023-04-09T03:47:53.029Z,10.50
2023-04-09T03:50:23.864Z,10.50
2023-04-09T03:52:54.802Z,10.50
2023-04-09T03:55:22.690Z,10.50
2023-04-09T03:57:51.251Z,10.60
2023-04-09T04:00:22.492Z,10.70
2023-04-09T04:03:14.735Z,10.70
2023-04-09T04:06:05.365Z,10.70
2023-04-09T04:08:44.717Z,10.70
2023-04-09T04:11:12.699Z,10.80
2023-04-09T04:13:40.934Z,10.80
2023-04-09T04:16:11.000Z,10.70
2023-04-09T04:18:40.444Z,10.70
2023-04-09T04:21:13.524Z,10.60
2023-04-09T04:23:44.502Z,10.40
2023-04-09T04:26:18.400Z,10.40
2023-04-09T04:28:46.645Z,10.30
2023-04-09T04:31:24.692Z,10.20
2023-04-09T04:33:52.952Z,10.10
2023-04-09T04:36:20.352Z,10.10
2023-04-09T04:38:52.732Z,10.00
2023-04-09T04:41:31.933Z,10.00
2023-04-09T04:44:09.783Z,10.00
2023-04-09T04:46:37.643Z,10.00
2023-04-09T04:49:05.574Z,10.00
2023-04-09T04:51:37.122Z,10.00
2023-04-09T04:54:10.484Z,10.00
2023-04-09T04:56:38.668Z,10.10
2023-04-09T04:59:17.171Z,10.00
2023-04-09T05:01:59.354Z,10.10
2023-04-09T05:04:30.593Z,10.10
2023-04-09T05:06:59.197Z,10.20
2023-04-09T05:09:26.962Z,10.20
2023-04-09T05:12:01.700Z,10.20
2023-04-09T05:14:29.112Z,10.20
2023-04-09T05:16:56.641Z,10.20
2023-04-09T05:19:28.753Z,10.20
2023-04-09T05:22:02.424Z,10.20
2023-04-09T05:24:30.227Z,10.30
2023-04-09T05:26:57.673Z,10.30
2023-04-09T05:29:26.022Z,10.30
2023-04-09T05:31:53.421Z,10.40
2023-04-09T05:34:36.451Z,10.40
2023-04-09T05:37:05.174Z,10.50
2023-04-09T05:39:33.850Z,10.50
2023-04-09T05:42:02.192Z,10.60
2023-04-09T05:44:52.192Z,10.60
2023-04-09T05:47:21.468Z,10.60
2023-04-09T05:50:03.449Z,10.70
2023-04-09T05:52:30.993Z,10.70
2023-04-09T05:54:58.528Z,10.70
2023-04-09T05:57:41.776Z,10.70
2023-04-09T06:00:09.897Z,10.70
2023-04-09T06:02:55.214Z,10.80
2023-04-09T06:05:22.724Z,10.80
2023-04-09T06:07:50.160Z,10.90
2023-04-09T06:10:17.748Z,10.90
2023-04-09T06:12:46.229Z,10.90
2023-04-09T06:15:13.747Z,11.00
2023-04-09T06:17:41.247Z,11.10
2023-04-09T06:20:09.158Z,11.20
2023-04-09T06:22:36.878Z,11.20
2023-04-09T06:25:04.435Z,11.20
2023-04-09T06:27:31.867Z,11.40
2023-04-09T06:29:59.212Z,11.50
2023-04-09T06:32:26.700Z,11.80
2023-04-09T06:34:54.050Z,12.00
2023-04-09T06:37:21.532Z,12.80
2023-04-09T06:40:00.445Z,13.80
2023-04-09T06:42:28.905Z,13.80
2023-04-09T06:45:08.607Z,13.60
2023-04-09T06:47:36.432Z,13.50
2023-04-09T06:50:04.270Z,13.20
2023-04-09T06:52:31.717Z,13.00
2023-04-09T06:54:59.104Z,13.00
2023-04-09T06:57:27.233Z,12.70
2023-04-09T06:59:54.644Z,12.60
2023-04-09T07:02:22.326Z,12.70
2023-04-09T07:04:49.960Z,12.90
2023-04-09T07:07:17.796Z,13.50
2023-04-09T07:09:45.396Z,13.40
2023-04-09T07:12:12.803Z,13.20
2023-04-09T07:14:40.274Z,12.90
2023-04-09T07:17:09.538Z,12.80
2023-04-09T07:19:36.900Z,12.70
2023-04-09T07:22:04.267Z,12.80
2023-04-09T07:24:32.579Z,12.90
2023-04-09T07:27:04.002Z,13.20
2023-04-09T07:29:31.405Z,13.40
2023-04-09T07:32:01.196Z,13.70
2023-04-09T07:34:28.937Z,13.80
2023-04-09T07:36:56.337Z,13.60
2023-04-09T07:39:23.718Z,13.70
2023-04-09T07:41:51.416Z,13.60
2023-04-09T07:44:18.891Z,14.00
2023-04-09T07:46:46.702Z,14.20
2023-04-09T07:49:14.496Z,14.30
2023-04-09T07:51:42.191Z,15.20
2023-04-09T07:54:09.871Z,15.70
2023-04-09T07:56:37.528Z,15.90
2023-04-09T07:59:05.326Z,16.00
2023-04-09T08:01:33.129Z,15.40
2023-04-09T08:04:01.019Z,15.00
2023-04-09T08:06:28.910Z,15.00
2023-04-09T08:08:56.456Z,14.80
2023-04-09T08:11:26.004Z,15.30
2023-04-09T08:13:53.823Z,16.90
2023-04-09T08:16:21.593Z,18.20
2023-04-09T08:18:50.007Z,18.60
2023-04-09T08:21:18.395Z,18.90
2023-04-09T08:23:46.438Z,18.80
2023-04-09T08:26:13.926Z,18.60
2023-04-09T08:28:42.101Z,18.80
2023-04-09T08:31:11.098Z,18.50
2023-04-09T08:33:38.841Z,17.40
2023-04-09T08:36:11.512Z,17.80
2023-04-09T08:38:39.169Z,18.90
2023-04-09T08:41:06.912Z,19.30
2023-04-09T08:43:53.164Z,18.80
2023-04-09T08:46:24.882Z,18.40
2023-04-09T08:48:53.368Z,18.20
2023-04-09T08:51:23.240Z,17.60
2023-04-09T08:53:57.133Z,17.40
2023-04-09T08:56:26.166Z,17.70
2023-04-09T08:58:56.575Z,18.80
2023-04-09T09:01:32.444Z,19.90
2023-04-09T09:04:05.592Z,20.90
2023-04-09T09:06:35.697Z,20.90
2023-04-09T09:09:05.499Z,21.10
2023-04-09T09:11:53.672Z,21.20
2023-04-09T09:14:21.229Z,22.00
2023-04-09T09:16:57.871Z,22.40
2023-04-09T09:19:25.604Z,23.00
2023-04-09T09:21:57.408Z,22.40
2023-04-09T09:24:24.909Z,22.30
2023-04-09T09:26:54.504Z,21.40
2023-04-09T09:29:21.907Z,20.80
2023-04-09T09:31:52.297Z,20.20
2023-04-09T09:34:24.796Z,20.00
2023-04-09T09:36:53.309Z,19.50
2023-04-09T09:39:22.213Z,18.60
2023-04-09T09:42:08.090Z,18.70
2023-04-09T09:44:35.849Z,18.80
2023-04-09T09:47:04.898Z,20.10
2023-04-09T09:49:32.434Z,20.50
2023-04-09T09:52:02.970Z,20.20
2023-04-09T09:54:38.842Z,20.10
2023-04-09T09:57:09.912Z,20.00
2023-04-09T09:59:56.040Z,19.90
2023-04-09T10:02:26.978Z,19.70
2023-04-09T10:04:54.781Z,19.10
2023-04-09T10:07:22.799Z,18.20
2023-04-09T10:09:52.002Z,17.70
2023-04-09T10:12:24.498Z,17.40
2023-04-09T10:14:55.258Z,16.90
2023-04-09T10:17:22.903Z,17.10
2023-04-09T10:20:05.455Z,17.80
2023-04-09T10:22:33.712Z,19.20
2023-04-09T10:25:01.398Z,20.10
2023-04-09T10:27:28.844Z,20.80
2023-04-09T10:29:56.305Z,21.00
2023-04-09T10:32:28.474Z,20.30
2023-04-09T10:34:57.263Z,20.80
2023-04-09T10:37:25.923Z,21.20
2023-04-09T10:39:53.996Z,21.30
2023-04-09T10:42:30.325Z,22.00
2023-04-09T10:45:15.396Z,21.10
2023-04-09T10:47:44.011Z,20.60
2023-04-09T10:50:28.055Z,20.70
2023-04-09T10:52:58.214Z,21.80
2023-04-09T10:55:36.503Z,21.90
2023-04-09T10:58:06.217Z,21.20
2023-04-09T11:00:38.264Z,20.70
2023-04-09T11:03:12.139Z,20.30
2023-04-09T11:05:40.887Z,20.10
2023-04-09T11:08:13.264Z,20.20
2023-04-09T11:10:52.137Z,19.70
2023-04-09T11:13:21.261Z,19.40
2023-04-09T11:15:48.713Z,19.10
2023-04-09T11:18:23.762Z,18.90
2023-04-09T11:20:55.414Z,18.80
2023-04-09T11:23:23.792Z,18.70
2023-04-09T11:25:52.257Z,18.30
2023-04-09T11:28:20.639Z,18.20
2023-04-09T11:30:50.267Z,18.10
2023-04-09T11:33:19.800Z,17.80
2023-04-09T11:35:48.599Z,17.60
2023-04-09T11:38:16.497Z,17.40
2023-04-09T11:40:48.664Z,17.20
2023-04-09T11:43:17.676Z,17.40
2023-04-09T11:45:50.244Z,17.30
2023-04-09T11:48:21.882Z,17.40
2023-04-09T11:50:49.798Z,17.50
2023-04-09T11:53:21.855Z,17.60
2023-04-09T11:55:53.675Z,17.80
2023-04-09T11:58:26.288Z,18.00
2023-04-09T12:00:56.253Z,18.30
2023-04-09T12:03:33.616Z,18.60
2023-04-09T12:06:03.777Z,18.80
2023-04-09T12:08:31.859Z,19.10
2023-04-09T12:11:16.997Z,18.90
2023-04-09T12:13:46.454Z,18.80
2023-04-09T12:16:14.759Z,18.70
2023-04-09T12:18:42.519Z,18.90
2023-04-09T12:21:10.063Z,19.10
2023-04-09T12:23:37.470Z,18.90
2023-04-09T12:26:04.999Z,18.90
2023-04-09T12:28:32.436Z,18.50
2023-04-09T12:31:00.018Z,18.30
2023-04-09T12:33:27.454Z,17.90
2023-04-09T12:35:56.124Z,17.90
2023-04-09T12:38:23.607Z,17.80
2023-04-09T12:40:51.170Z,17.80
2023-04-09T12:43:18.521Z,18.00
2023-04-09T12:45:45.903Z,18.10
2023-04-09T12:48:13.310Z,18.20
2023-04-09T12:50:40.774Z,17.80
2023-04-09T12:53:08.898Z,17.50
2023-04-09T12:55:36.275Z,17.50
2023-04-09T12:58:03.765Z,17.50
2023-04-09T13:00:31.375Z,17.40
2023-04-09T13:02:58.997Z,17.40
2023-04-09T13:05:26.647Z,17.30
2023-04-09T13:07:54.066Z,17.30
2023-04-09T13:10:21.450Z,17.40
2023-04-09T13:12:48.943Z,17.20
2023-04-09T13:15:16.604Z,17.10
2023-04-09T13:17:44.064Z,17.20
2023-04-09T13:20:12.145Z,17.40
2023-04-09T13:22:39.608Z,17.60
2023-04-09T13:25:07.331Z,17.50
2023-04-09T13:27:35.571Z,17.40
2023-04-09T13:30:02.991Z,17.30
2023-04-09T13:32:30.677Z,17.30
2023-04-09T13:35:00.473Z,17.40
2023-04-09T13:37:27.922Z,17.20
2023-04-09T13:39:55.935Z,17.20
2023-04-09T13:42:23.343Z,17.10
2023-04-09T13:44:50.741Z,17.10
2023-04-09T13:47:18.178Z,17.10
2023-04-09T13:49:45.885Z,17.10
2023-04-09T13:52:14.147Z,17.20
2023-04-09T13:54:41.640Z,17.20
2023-04-09T13:57:10.317Z,17.20
2023-04-09T13:59:42.465Z,17.20
2023-04-09T14:02:10.312Z,17.30
2023-04-09T14:04:37.943Z,17.10
2023-04-09T14:07:06.227Z,17.30
2023-04-09T14:09:33.695Z,17.30
2023-04-09T14:12:01.926Z,17.20
2023-04-09T14:14:29.378Z,17.20
2023-04-09T14:16:56.984Z,17.20
2023-04-09T14:19:24.400Z,17.30
2023-04-09T14:21:53.340Z,17.20
2023-04-09T14:24:23.083Z,17.20
2023-04-09T14:26:53.469Z,17.10
2023-04-09T14:29:22.153Z,17.00
2023-04-09T14:31:49.866Z,17.00
2023-04-09T14:34:17.380Z,17.10
2023-04-09T14:36:44.785Z,17.30
2023-04-09T14:39:12.205Z,17.30
2023-04-09T14:41:39.822Z,17.30
2023-04-09T14:44:07.645Z,17.20
2023-04-09T14:46:36.749Z,17.10
2023-04-09T14:49:04.165Z,16.90
2023-04-09T14:51:31.691Z,16.80
2023-04-09T14:53:59.523Z,16.70
2023-04-09T14:56:27.251Z,16.60
2023-04-09T14:58:54.880Z,16.50
2023-04-09T15:01:22.730Z,16.40
2023-04-09T15:03:50.647Z,16.20
2023-04-09T15:06:18.318Z,16.20
2023-04-09T15:08:45.884Z,16.20
2023-04-09T15:11:22.643Z,16.40
2023-04-09T15:13:51.318Z,16.30
2023-04-09T15:16:26.019Z,16.30
2023-04-09T15:18:56.361Z,16.20
2023-04-09T15:21:24.162Z,16.00
2023-04-09T15:23:51.828Z,16.00
2023-04-09T15:26:19.604Z,15.90
2023-04-09T15:28:47.050Z,15.90
2023-04-09T15:31:14.715Z,15.90
2023-04-09T15:33:43.886Z,15.90
2023-04-09T15:36:12.066Z,15.80
2023-04-09T15:38:39.683Z,15.70
2023-04-09T15:41:07.177Z,15.60
2023-04-09T15:43:34.752Z,15.50
2023-04-09T15:46:11.704Z,15.50
2023-04-09T15:48:41.769Z,15.50
2023-04-09T15:51:09.556Z,15.40
2023-04-09T15:53:37.882Z,15.40
2023-04-09T15:56:05.950Z,15.30
2023-04-09T15:58:33.356Z,15.20
2023-04-09T16:01:01.535Z,15.10
2023-04-09T16:03:29.340Z,15.00
2023-04-09T16:05:57.022Z,14.90
2023-04-09T16:08:25.846Z,14.90
2023-04-09T16:10:56.403Z,14.80
2023-04-09T16:13:23.896Z,14.80
2023-04-09T16:15:51.415Z,14.80
2023-04-09T16:18:19.169Z,14.70
2023-04-09T16:20:47.174Z,14.70
2023-04-09T16:23:14.953Z,14.70
2023-04-09T16:25:42.463Z,14.60
2023-04-09T16:28:14.510Z,14.60
2023-04-09T16:30:42.181Z,14.40
2023-04-09T16:33:09.942Z,14.30
2023-04-09T16:35:39.619Z,14.10
2023-04-09T16:38:07.826Z,13.90
2023-04-09T16:40:35.387Z,13.90
2023-04-09T16:43:03.231Z,13.80
2023-04-09T16:45:31.685Z,13.80
2023-04-09T16:47:59.457Z,13.80
2023-04-09T16:50:30.408Z,13.70
2023-04-09T16:53:00.124Z,13.70
2023-04-09T16:55:27.602Z,13.60
2023-04-09T16:57:56.785Z,13.60
2023-04-09T17:00:24.653Z,13.50
2023-04-09T17:02:52.419Z,13.50
2023-04-09T17:05:20.361Z,13.40
2023-04-09T17:07:48.523Z,13.30
2023-04-09T17:10:16.193Z,13.20
2023-04-09T17:12:46.383Z,13.20
2023-04-09T17:15:14.313Z,13.10
2023-04-09T17:17:43.642Z,13.10
2023-04-09T17:20:11.735Z,13.10
2023-04-09T17:22:39.352Z,13.10
2023-04-09T17:25:07.272Z,13.10
2023-04-09T17:27:34.751Z,13.10
2023-04-09T17:30:02.885Z,13.10
2023-04-09T17:32:30.951Z,13.20
2023-04-09T17:34:59.639Z,13.20
2023-04-09T17:37:28.855Z,13.10
2023-04-09T17:39:59.589Z,13.10
2023-04-09T17:42:27.102Z,13.10
2023-04-09T17:44:54.610Z,13.10
2023-04-09T17:47:22.264Z,13.10
2023-04-09T17:49:49.895Z,13.00
2023-04-09T17:52:17.425Z,13.10
2023-04-09T17:54:45.615Z,13.10
2023-04-09T17:57:13.236Z,13.10
2023-04-09T17:59:41.076Z,13.00
2023-04-09T18:02:08.950Z,13.00
2023-04-09T18:04:43.315Z,13.00
2023-04-09T18:07:11.176Z,12.90
2023-04-09T18:09:40.473Z,12.90
2023-04-09T18:12:08.444Z,12.90
2023-04-09T18:14:36.396Z,12.80
2023-04-09T18:17:03.899Z,12.90
2023-04-09T18:19:31.552Z,12.90
2023-04-09T18:21:59.162Z,12.90
2023-04-09T18:24:27.910Z,12.80
2023-04-09T18:26:55.381Z,12.80
2023-04-09T18:29:27.509Z,12.80
2023-04-09T18:31:58.937Z,12.80
2023-04-09T18:34:29.655Z,12.80
2023-04-09T18:36:57.343Z,12.80
2023-04-09T18:39:24.861Z,12.70
2023-04-09T18:41:52.342Z,12.60
2023-04-09T18:44:19.953Z,12.60
2023-04-09T18:46:47.449Z,12.70
2023-04-09T18:49:15.482Z,12.60
2023-04-09T18:51:43.139Z,12.60
2023-04-09T18:54:14.577Z,12.60
2023-04-09T18:56:42.636Z,12.60
2023-04-09T18:59:14.388Z,12.60
2023-04-09T19:01:42.339Z,12.60
2023-04-09T19:04:10.516Z,12.60
2023-04-09T19:06:38.422Z,12.50
2023-04-09T19:09:05.944Z,12.50
2023-04-09T19:11:42.693Z,12.50
2023-04-09T19:14:10.565Z,12.50
2023-04-09T19:16:38.432Z,12.40
2023-04-09T19:19:06.393Z,12.40
2023-04-09T19:21:35.317Z,12.40
2023-04-09T19:24:04.888Z,12.40
2023-04-09T19:26:33.807Z,12.40
2023-04-09T19:29:16.313Z,12.30
2023-04-09T19:31:43.941Z,12.30
2023-04-09T19:34:11.494Z,12.30
2023-04-09T19:36:39.350Z,12.20
2023-04-09T19:39:08.527Z,12.30
2023-04-09T19:41:36.134Z,12.30
2023-04-09T19:44:05.298Z,12.30
2023-04-09T19:46:33.465Z,12.20
2023-04-09T19:49:03.284Z,12.20
2023-04-09T19:51:42.948Z,12.10
2023-04-09T19:54:10.961Z,12.10
2023-04-09T19:56:38.429Z,12.10
2023-04-09T19:59:06.171Z,12.10
2023-04-09T20:01:34.060Z,12.00
2023-04-09T20:04:05.126Z,12.10
2023-04-09T20:06:33.319Z,12.10
2023-04-09T20:09:01.523Z,12.10
2023-04-09T20:11:29.381Z,12.00
2023-04-09T20:14:26.594Z,12.00
2023-04-09T20:16:57.982Z,11.90
2023-04-09T20:19:28.463Z,11.90
2023-04-09T20:21:56.205Z,12.00
2023-04-09T20:24:26.353Z,12.00
2023-04-09T20:26:54.687Z,11.90
2023-04-09T20:29:22.568Z,11.90
2023-04-09T20:31:50.115Z,11.90
2023-04-09T20:34:17.768Z,12.00
2023-04-09T20:36:47.688Z,11.90
2023-04-09T20:39:38.856Z,11.80
2023-04-09T20:42:06.520Z,11.80
2023-04-09T20:44:39.510Z,11.80
2023-04-09T20:47:07.636Z,11.80
2023-04-09T20:49:35.341Z,11.80
2023-04-09T20:52:02.948Z,11.70
2023-04-09T20:54:30.908Z,11.70
2023-04-09T20:56:58.636Z,11.70
2023-04-09T20:59:27.709Z,11.80
2023-04-09T21:01:56.066Z,11.70
2023-04-09T21:04:24.532Z,11.70
2023-04-09T21:06:52.564Z,11.70
2023-04-09T21:09:20.787Z,11.80
2023-04-09T21:11:54.521Z,11.70
2023-04-09T21:14:22.385Z,11.80
2023-04-09T21:16:50.354Z,11.70
2023-04-09T21:19:18.254Z,11.70
2023-04-09T21:21:46.323Z,11.70
2023-04-09T21:24:15.351Z,11.70
2023-04-09T21:26:50.152Z,11.60
2023-04-09T21:29:21.802Z,11.60
2023-04-09T21:31:50.022Z,11.60
2023-04-09T21:34:17.792Z,11.60
2023-04-09T21:36:46.322Z,11.50
2023-04-09T21:39:16.977Z,11.60
2023-04-09T21:41:44.591Z,11.50
2023-04-09T21:44:13.440Z,11.50
2023-04-09T21:46:41.829Z,11.40
2023-04-09T21:49:09.540Z,11.40
2023-04-09T21:51:38.397Z,11.40
2023-04-09T21:54:08.326Z,11.40
2023-04-09T21:56:36.836Z,11.40
2023-04-09T21:59:10.379Z,11.40
2023-04-09T22:01:38.090Z,11.40
2023-04-09T22:04:09.378Z,11.30
2023-04-09T22:06:37.274Z,11.30
2023-04-09T22:09:05.287Z,11.40
2023-04-09T22:11:34.581Z,11.30
2023-04-09T22:14:05.478Z,11.30
2023-04-09T22:16:33.119Z,11.30
2023-04-09T22:19:00.727Z,11.30
2023-04-09T22:21:28.684Z,11.20
2023-04-09T22:23:58.550Z,11.30
2023-04-09T22:26:26.641Z,11.30
2023-04-09T22:28:54.317Z,11.30
2023-04-09T22:31:22.953Z,11.30
2023-04-09T22:33:57.559Z,11.30
2023-04-09T22:36:38.789Z,11.20
2023-04-09T22:39:06.239Z,11.20
2023-04-09T22:41:33.700Z,11.20
2023-04-09T22:44:04.595Z,11.20
2023-04-09T22:46:32.794Z,11.10
2023-04-09T22:49:05.512Z,11.10
2023-04-09T22:51:34.767Z,11.10
2023-04-09T22:54:02.842Z,11.10
2023-04-09T22:56:31.815Z,11.10
2023-04-09T22:59:00.053Z,11.20
2023-04-09T23:01:28.255Z,11.10
2023-04-09T23:03:56.352Z,11.10
2023-04-09T23:06:25.734Z,11.10
2023-04-09T23:08:53.541Z,11.00
2023-04-09T23:11:21.317Z,11.10
2023-04-09T23:13:52.042Z,11.10
2023-04-09T23:16:19.685Z,11.00
2023-04-09T23:18:47.569Z,11.00
2023-04-09T23:21:15.635Z,11.00
2023-04-09T23:23:43.169Z,10.90
2023-04-09T23:26:11.131Z,10.90
2023-04-09T23:28:38.756Z,10.90
2023-04-09T23:31:06.619Z,10.90
2023-04-09T23:33:34.563Z,10.90
2023-04-09T23:36:02.076Z,10.90
2023-04-09T23:38:29.577Z,10.90
2023-04-09T23:40:57.137Z,10.80
2023-04-09T23:43:24.564Z,10.80
2023-04-09T23:45:52.258Z,10.80
2023-04-09T23:48:19.790Z,10.80
2023-04-09T23:50:50.467Z,10.80
2023-04-09T23:53:18.097Z,10.80
2023-04-09T23:55:46.968Z,10.70
2023-04-09T23:58:18.011Z,10.70
